JTV YSSY-YORG
Flight info
| Callsign | JTV |
|---|---|
| Flight time | N/A |
| Altitude | 8000 |
| Route | SY3/34L KADOM W595 VIRUR |
| Aircraft | C310/L-SDFGR/S |
Departure
| Time | 2026-05-04 06:44 |
|---|---|
| Airport | Sydney Kingsford Smith International Airport (YSSY) |
Arrival
| Time | N/A |
|---|---|
| Airport | Orange Airport (YORG) |
| Time | Latitude | Longitude | Altitude | Speed | Heading |
|---|---|---|---|---|---|
| 2026-05-04 06:20 | -33.93455 | 151.18832 | 24 ft | 0 kts | 190° |
| 2026-05-04 06:33 | -33.93459 | 151.18831 | 24 ft | 0 kts | 190° |
| 2026-05-04 06:34 | -33.93462 | 151.18831 | 24 ft | 3 kts | 174° |
| 2026-05-04 06:35 | -33.93538 | 151.18852 | 23 ft | 16 kts | 189° |
| 2026-05-04 06:36 | -33.93890 | 151.17776 | 5 ft | 0 kts | 164° |
| 2026-05-04 06:37 | -33.93898 | 151.17780 | 5 ft | 9 kts | 166° |
| 2026-05-04 06:37 | -33.94079 | 151.17825 | 8 ft | 38 kts | 168° |
| 2026-05-04 06:38 | -33.94326 | 151.17889 | 16 ft | 34 kts | 168° |
| 2026-05-04 06:38 | -33.94522 | 151.17882 | 20 ft | 22 kts | 167° |
| 2026-05-04 06:40 | -33.95143 | 151.17870 | 14 ft | 0 kts | 255° |
| 2026-05-04 06:41 | -33.95144 | 151.17866 | 14 ft | 3 kts | 256° |
| 2026-05-04 06:41 | -33.95158 | 151.17795 | 13 ft | 13 kts | 257° |
| 2026-05-04 06:42 | -33.95139 | 151.17731 | 14 ft | 8 kts | 353° |
| 2026-05-04 06:42 | -33.95135 | 151.17729 | 14 ft | 0 kts | 350° |
| 2026-05-04 06:44 | -33.93057 | 151.15411 | 1665 ft | 120 kts | 246° |
| 2026-05-04 06:44 | -33.93472 | 151.14549 | 2038 ft | 120 kts | 245° |
| 2026-05-04 06:44 | -33.93919 | 151.13705 | 2415 ft | 119 kts | 243° |
| 2026-05-04 06:45 | -33.94363 | 151.12888 | 2777 ft | 116 kts | 243° |
| 2026-05-04 06:45 | -33.94790 | 151.12082 | 3089 ft | 113 kts | 246° |
| 2026-05-04 06:45 | -33.94991 | 151.11200 | 3354 ft | 109 kts | 273° |
| 2026-05-04 06:45 | -33.95026 | 151.10254 | 3603 ft | 113 kts | 273° |
| 2026-05-04 06:46 | -33.95031 | 151.09291 | 3840 ft | 116 kts | 276° |
| 2026-05-04 06:46 | -33.95036 | 151.08339 | 4065 ft | 120 kts | 273° |
| 2026-05-04 06:46 | -33.95067 | 151.07315 | 4300 ft | 122 kts | 272° |
| 2026-05-04 06:46 | -33.95125 | 151.06288 | 4530 ft | 125 kts | 272° |
| 2026-05-04 06:48 | -33.95356 | 150.99037 | 6313 ft | 122 kts | 271° |
| 2026-05-04 06:48 | -33.95385 | 150.98025 | 6587 ft | 120 kts | 271° |
| 2026-05-04 06:49 | -33.95410 | 150.97026 | 6861 ft | 119 kts | 272° |
| 2026-05-04 06:50 | -33.95457 | 150.89636 | 8012 ft | 155 kts | 272° |
| 2026-05-04 06:51 | -33.95429 | 150.88309 | 8006 ft | 159 kts | 274° |
| 2026-05-04 06:51 | -33.95384 | 150.86961 | 8002 ft | 160 kts | 274° |
| 2026-05-04 06:51 | -33.95342 | 150.85634 | 8002 ft | 160 kts | 274° |
| 2026-05-04 06:51 | -33.95296 | 150.84279 | 8002 ft | 160 kts | 274° |
| 2026-05-04 06:52 | -33.95252 | 150.82933 | 8001 ft | 160 kts | 273° |
| 2026-05-04 06:52 | -33.95009 | 150.81648 | 8011 ft | 157 kts | 299° |
| 2026-05-04 06:52 | -33.94473 | 150.80498 | 8011 ft | 158 kts | 297° |
| 2026-05-04 06:52 | -33.93941 | 150.79320 | 8004 ft | 158 kts | 298° |
| 2026-05-04 06:53 | -33.93403 | 150.78155 | 8001 ft | 159 kts | 299° |
| 2026-05-04 06:53 | -33.92855 | 150.77005 | 8001 ft | 159 kts | 299° |
| 2026-05-04 06:53 | -33.92291 | 150.75850 | 8001 ft | 159 kts | 300° |
| 2026-05-04 06:53 | -33.91747 | 150.74687 | 8001 ft | 159 kts | 298° |
| 2026-05-04 06:54 | -33.91206 | 150.73524 | 8001 ft | 159 kts | 299° |
| 2026-05-04 06:54 | -33.90657 | 150.72377 | 8001 ft | 159 kts | 298° |
| 2026-05-04 06:54 | -33.90126 | 150.71199 | 8001 ft | 159 kts | 297° |
| 2026-05-04 06:54 | -33.89614 | 150.70027 | 8001 ft | 159 kts | 297° |
| 2026-05-04 06:55 | -33.89101 | 150.68852 | 8001 ft | 159 kts | 297° |
| 2026-05-04 06:55 | -33.88570 | 150.67668 | 8001 ft | 159 kts | 298° |
| 2026-05-04 06:55 | -33.88041 | 150.66513 | 8001 ft | 159 kts | 297° |
| 2026-05-04 06:55 | -33.87508 | 150.65346 | 8001 ft | 159 kts | 298° |
| 2026-05-04 06:56 | -33.86972 | 150.64169 | 8001 ft | 159 kts | 298° |
| 2026-05-04 06:57 | -33.83213 | 150.56043 | 8001 ft | 158 kts | 298° |
| 2026-05-04 06:58 | -33.82677 | 150.54887 | 8001 ft | 158 kts | 298° |
| 2026-05-04 06:58 | -33.82144 | 150.53723 | 8001 ft | 158 kts | 298° |
| 2026-05-04 06:58 | -33.81625 | 150.52559 | 8001 ft | 158 kts | 297° |
| 2026-05-04 06:58 | -33.81103 | 150.51396 | 8001 ft | 158 kts | 298° |
| 2026-05-04 06:59 | -33.80556 | 150.50227 | 8000 ft | 158 kts | 298° |
| 2026-05-04 06:59 | -33.80054 | 150.49052 | 8000 ft | 158 kts | 298° |
| 2026-05-04 06:59 | -33.79530 | 150.47870 | 8001 ft | 158 kts | 297° |
| 2026-05-04 06:59 | -33.78983 | 150.46707 | 8003 ft | 158 kts | 300° |
| 2026-05-04 07:01 | -33.75265 | 150.38591 | 8018 ft | 158 kts | 299° |
| 2026-05-04 07:01 | -33.74715 | 150.37424 | 8018 ft | 158 kts | 299° |
| 2026-05-04 07:02 | -33.74181 | 150.36275 | 8018 ft | 158 kts | 299° |
| 2026-05-04 07:02 | -33.73646 | 150.35120 | 8018 ft | 158 kts | 299° |
| 2026-05-04 07:02 | -33.73110 | 150.33963 | 8021 ft | 158 kts | 300° |
| 2026-05-04 07:02 | -33.72566 | 150.32790 | 8021 ft | 158 kts | 298° |
| 2026-05-04 07:03 | -33.72030 | 150.31630 | 8021 ft | 158 kts | 299° |
| 2026-05-04 07:03 | -33.71499 | 150.30472 | 8020 ft | 158 kts | 296° |
| 2026-05-04 07:03 | -33.71059 | 150.29260 | 8020 ft | 159 kts | 293° |
| 2026-05-04 07:03 | -33.70645 | 150.28018 | 8021 ft | 159 kts | 291° |
| 2026-05-04 07:04 | -33.70250 | 150.26775 | 8021 ft | 159 kts | 290° |
| 2026-05-04 07:04 | -33.69828 | 150.25558 | 8017 ft | 159 kts | 289° |
| 2026-05-04 07:04 | -33.69470 | 150.24283 | 7973 ft | 162 kts | 287° |
| 2026-05-04 07:04 | -33.69113 | 150.22998 | 7948 ft | 162 kts | 288° |
| 2026-05-04 07:05 | -33.68758 | 150.21710 | 7948 ft | 161 kts | 289° |
| 2026-05-04 07:05 | -33.68411 | 150.20428 | 7948 ft | 160 kts | 289° |
| 2026-05-04 07:05 | -33.68061 | 150.19156 | 7947 ft | 160 kts | 289° |
| 2026-05-04 07:05 | -33.67713 | 150.17877 | 7947 ft | 160 kts | 289° |
| 2026-05-04 07:06 | -33.67026 | 150.15338 | 7947 ft | 159 kts | 288° |
| 2026-05-04 07:06 | -33.66680 | 150.14073 | 7947 ft | 159 kts | 289° |
| 2026-05-04 07:06 | -33.66334 | 150.12807 | 7947 ft | 159 kts | 289° |
| 2026-05-04 07:07 | -33.65991 | 150.11552 | 7947 ft | 159 kts | 289° |
| 2026-05-04 07:08 | -33.63594 | 150.02719 | 7947 ft | 159 kts | 289° |
| 2026-05-04 07:09 | -33.63250 | 150.01456 | 7947 ft | 159 kts | 289° |
| 2026-05-04 07:09 | -33.62910 | 150.00207 | 7947 ft | 158 kts | 289° |
| 2026-05-04 07:09 | -33.62558 | 149.98927 | 7947 ft | 158 kts | 289° |
| 2026-05-04 07:09 | -33.62212 | 149.97669 | 7947 ft | 158 kts | 289° |
| 2026-05-04 07:10 | -33.61870 | 149.96407 | 7947 ft | 158 kts | 289° |
| 2026-05-04 07:10 | -33.61528 | 149.95152 | 7947 ft | 158 kts | 289° |
| 2026-05-04 07:12 | -33.59117 | 149.86333 | 7946 ft | 158 kts | 289° |